Time;durP1;ratioP1;P1;durP2;ratioP2;P2;SDS_P1;SDS_P2;PMS_P1;PMS_P2;Temp;Humidity;BMP_temperature;BMP_pressure;BME280_temperature;BME280_humidity;BME280_pressure;Samples;Min_cycle;Max_cycle;Signal;HPM_P1;HPM_P2
2023/04/06 00:01:35;;;;;;;11.27;10.18;;;;;;;;;;5016211;28;20457;-92
2023/04/06 00:07:06;;;;;;;11.32;10.13;;;;;;;;;;5039703;28;20420;-92
2023/04/06 00:09:54;;;;;;;12.52;10.40;;;;;;;;;;5019173;28;20434;-92
2023/04/06 00:12:58;;;;;;;;;;;;;;;;;;;;;
2023/04/06 00:21:33;;;;;;;11.70;10.50;;;;;;;;;;5022645;28;20419;-92
2023/04/06 00:24:32;;;;;;;;;;;;;;;;;;;;;
2023/04/06 00:27:39;;;;;;;17.80;14.38;;;;;;;;;;5011451;28;20775;-93
2023/04/06 00:30:27;;;;;;;12.43;11.13;;;;;;;;;;5020634;28;20485;-92
2023/04/06 00:33:13;;;;;;;;;;;;;;;;;;;;;
2023/04/06 00:36:08;;;;;;;;;;;;;;;;;;;;;
2023/04/06 00:39:07;;;;;;;;;;;;;;;;;;;;;
2023/04/06 00:41:50;;;;;;;11.63;10.43;;;;;;;;;;5030364;28;20425;-94
2023/04/06 00:44:27;;;;;;;11.98;10.73;;;;;;;;;;5013862;28;20431;-91
2023/04/06 00:47:30;;;;;;;;;;;;;;;;;;;;;
2023/04/06 00:50:07;;;;;;;12.70;10.88;;;;;;;;;;5018594;28;20437;-91
2023/04/06 00:52:51;;;;;;;12.65;10.85;;;;;;;;;;5015548;28;20468;-92
2023/04/06 00:55:43;;;;;;;12.13;10.82;;;;;;;;;;5016793;28;20406;-92
2023/04/06 01:01:32;;;;;;;13.25;10.70;;;;;;;;;;5010085;28;20417;-92
2023/04/06 01:07:29;;;;;;;13.15;10.52;;;;;;;;;;5000493;28;20429;-91
2023/04/06 01:10:23;;;;;;;12.65;10.75;;;;;;;;;;4974269;28;20443;-92
2023/04/06 01:13:06;;;;;;;13.23;10.73;;;;;;;;;;5023728;28;20467;-91
2023/04/06 01:16:24;;;;;;;;;;;;;;;;;;;;;
2023/04/06 01:19:23;;;;;;;;;;;;;;;;;;;;;
2023/04/06 01:21:50;;;;;;;12.38;11.07;;;;;;;;;;5035754;28;20457;-91
2023/04/06 01:27:45;;;;;;;;;;;;;;;;;;;;;
2023/04/06 01:30:25;;;;;;;;;;;;;;;;;;;;;
2023/04/06 01:33:04;;;;;;;13.87;12.47;;;;;;;;;;5032574;28;20425;-91
2023/04/06 01:39:12;;;;;;;13.52;12.13;;;;;;;;;;4971148;28;20454;-91
2023/04/06 01:42:07;;;;;;;14.02;12.52;;;;;;;;;;5028578;28;20423;-91
2023/04/06 01:44:54;;;;;;;13.80;12.17;;;;;;;;;;5037266;28;20419;-94
2023/04/06 01:47:20;;;;;;;13.90;11.65;;;;;;;;;;5054342;28;20494;-95
2023/04/06 01:49:49;;;;;;;13.18;11.77;;;;;;;;;;5037591;28;20562;-93
2023/04/06 01:52:18;;;;;;;13.20;11.75;;;;;;;;;;5035244;28;20415;-95
2023/04/06 01:54:56;;;;;;;12.40;11.13;;;;;;;;;;5017273;28;20406;-94
2023/04/06 02:06:37;;;;;;;14.63;11.53;;;;;;;;;;5024591;28;20470;-95
2023/04/06 02:09:15;;;;;;;12.40;11.10;;;;;;;;;;5002690;28;20406;-96
2023/04/06 02:24:46;;;;;;;;;;;;;;;;;;;;;
2023/04/06 02:33:36;;;;;;;12.40;11.10;;;;;;;;;;4984571;28;20429;-91
2023/04/06 02:39:15;;;;;;;12.93;11.63;;;;;;;;;;4971575;28;20444;-93
2023/04/06 02:45:39;;;;;;;;;;;;;;;;;;;;;
2023/04/06 02:48:41;;;;;;;13.05;11.70;;;;;;;;;;4907145;29;20433;-93
2023/04/06 02:51:50;;;;;;;;;;;;;;;;;;;;;
2023/04/06 03:00:41;;;;;;;12.43;11.13;;;;;;;;;;4894855;29;20456;-93
2023/04/06 03:03:30;;;;;;;;;;;;;;;;;;;;;
2023/04/06 03:06:37;;;;;;;13.50;11.43;;;;;;;;;;4945111;28;20435;-92
2023/04/06 03:15:15;;;;;;;13.03;10.37;;;;;;;;;;4905251;29;20193;-93
2023/04/06 03:21:21;;;;;;;;;;;;;;;;;;;;;
2023/04/06 03:23:58;;;;;;;;;;;;;;;;;;;;;
2023/04/06 03:30:34;;;;;;;;;;;;;;;;;;;;;
2023/04/06 03:33:04;;;;;;;14.25;11.38;;;;;;;;;;5021453;28;20401;-94
2023/04/06 03:36:13;;;;;;;;;;;;;;;;;;;;;
2023/04/06 03:48:55;;;;;;;;;;;;;;;;;;;;;
2023/04/06 03:55:02;;;;;;;;;;;;;;;;;;;;;
2023/04/06 03:57:59;;;;;;;15.63;11.33;;;;;;;;;;4865438;29;20202;-94
2023/04/06 04:00:44;;;;;;;;;;;;;;;;;;;;;
2023/04/06 04:06:43;;;;;;;;;;;;;;;;;;;;;
2023/04/06 04:09:47;;;;;;;;;;;;;;;;;;;;;
2023/04/06 04:12:54;;;;;;;13.17;11.27;;;;;;;;;;4897713;29;20189;-94
2023/04/06 04:15:47;;;;;;;;;;;;;;;;;;;;;
2023/04/06 04:18:46;;;;;;;;;;;;;;;;;;;;;
2023/04/06 04:21:35;;;;;;;15.98;14.25;;;;;;;;;;4918883;29;20423;-95
2023/04/06 04:27:26;;;;;;;;;;;;;;;;;;;;;
2023/04/06 04:30:16;;;;;;;16.40;14.73;;;;;;;;;;4935100;29;20521;-91
2023/04/06 04:32:58;;;;;;;16.75;14.73;;;;;;;;;;4910775;29;20437;-92
2023/04/06 04:39:07;;;;;;;16.25;14.40;;;;;;;;;;4888577;29;20506;-92
2023/04/06 04:42:01;;;;;;;16.15;14.45;;;;;;;;;;4899852;29;20431;-92
2023/04/06 04:47:46;;;;;;;17.63;14.90;;;;;;;;;;4911334;29;20589;-92
2023/04/06 04:50:45;;;;;;;;;;;;;;;;;;;;;
2023/04/06 04:56:47;;;;;;;18.33;15.23;;;;;;;;;;4953700;28;20452;-91
2023/04/06 04:59:33;;;;;;;16.70;15.00;;;;;;;;;;4952405;28;20424;-93
2023/04/06 05:02:10;;;;;;;16.93;15.13;;;;;;;;;;4956542;28;20526;-90
2023/04/06 05:04:42;;;;;;;15.23;13.27;;;;;;;;;;4967599;28;20191;-92
2023/04/06 05:07:20;;;;;;;18.17;13.07;;;;;;;;;;5034390;28;20188;-91
2023/04/06 05:10:30;;;;;;;17.30;14.52;;;;;;;;;;5022231;28;20508;-89
2023/04/06 05:12:54;;;;;;;18.30;14.60;;;;;;;;;;5032357;28;20438;-90
2023/04/06 05:15:23;;;;;;;18.03;14.77;;;;;;;;;;5037355;28;20507;-90
2023/04/06 05:17:55;;;;;;;18.13;15.02;;;;;;;;;;5032242;28;20416;-91
2023/04/06 05:20:24;;;;;;;17.10;15.23;;;;;;;;;;5021217;28;20412;-90
2023/04/06 05:23:03;;;;;;;17.58;14.82;;;;;;;;;;5032421;28;20417;-91
2023/04/06 05:25:29;;;;;;;18.00;15.18;;;;;;;;;;5022784;28;20492;-91
2023/04/06 05:27:58;;;;;;;17.27;15.13;;;;;;;;;;5027266;28;20454;-91
2023/04/06 05:30:27;;;;;;;17.85;15.05;;;;;;;;;;5036391;28;20476;-91
2023/04/06 05:32:53;;;;;;;16.30;14.55;;;;;;;;;;5043686;28;20437;-90
2023/04/06 05:35:19;;;;;;;16.83;15.00;;;;;;;;;;5031757;28;20443;-90
2023/04/06 05:37:48;;;;;;;14.80;12.53;;;;;;;;;;5018741;28;20259;-90
2023/04/06 05:40:15;;;;;;;16.20;13.30;;;;;;;;;;5019997;28;20184;-90
2023/04/06 05:43:06;;;;;;;16.97;13.03;;;;;;;;;;5026869;28;20267;-91
2023/04/06 05:45:35;;;;;;;16.67;14.88;;;;;;;;;;5019862;28;20463;-90
2023/04/06 05:48:05;;;;;;;16.45;14.82;;;;;;;;;;5016608;28;20417;-91
2023/04/06 05:50:33;;;;;;;18.67;14.90;;;;;;;;;;5017703;28;20532;-91
2023/04/06 05:53:02;;;;;;;15.83;13.30;;;;;;;;;;5001917;28;20184;-91
2023/04/06 05:55:31;;;;;;;19.30;15.07;;;;;;;;;;5018763;28;20485;-91
2023/04/06 05:58:00;;;;;;;18.45;16.20;;;;;;;;;;5018280;28;20492;-91
2023/04/06 06:00:36;;;;;;;;;;;;;;;;;;;;;
2023/04/06 06:03:04;;;;;;;19.65;15.77;;;;;;;;;;5035883;28;20424;-90
2023/04/06 06:05:37;;;;;;;18.08;15.88;;;;;;;;;;5037627;28;20453;-91
2023/04/06 06:08:06;;;;;;;18.23;16.20;;;;;;;;;;5037601;28;20611;-89
2023/04/06 06:10:33;;;;;;;19.05;15.98;;;;;;;;;;5037496;28;20428;-91
2023/04/06 06:13:28;;;;;;;19.27;14.67;;;;;;;;;;5039190;28;20219;-91
2023/04/06 06:16:30;;;;;;;16.73;13.40;;;;;;;;;;5018769;28;20176;-93
2023/04/06 06:18:58;;;;;;;19.50;15.60;;;;;;;;;;4997147;28;20401;-92
2023/04/06 06:27:47;;;;;;;18.42;16.08;;;;;;;;;;5022911;28;20492;-91
2023/04/06 06:30:46;;;;;;;;;;;;;;;;;;;;;
2023/04/06 06:36:53;;;;;;;18.53;14.03;;;;;;;;;;4929338;28;20318;-91
2023/04/06 06:39:23;;;;;;;17.30;13.90;;;;;;;;;;5013169;28;20196;-88
2023/04/06 06:42:02;;;;;;;;;;;;;;;;;;;;;
2023/04/06 06:44:35;;;;;;;19.77;14.70;;;;;;;;;;5021444;28;20189;-92
2023/04/06 06:47:07;;;;;;;19.80;15.17;;;;;;;;;;5016039;28;20291;-92
2023/04/06 06:49:33;;;;;;;22.33;15.77;;;;;;;;;;5015804;28;20504;-91
2023/04/06 06:52:02;;;;;;;20.35;17.38;;;;;;;;;;5015614;28;20448;-91
2023/04/06 06:54:34;;;;;;;19.83;17.45;;;;;;;;;;5014775;28;20413;-92
2023/04/06 06:57:22;;;;;;;18.52;15.80;;;;;;;;;;5014636;28;20421;-92
2023/04/06 07:02:56;;;;;;;20.38;16.83;;;;;;;;;;5032698;28;20420;-91
2023/04/06 07:05:31;;;;;;;18.52;16.27;;;;;;;;;;5031543;28;20401;-91
2023/04/06 07:08:03;;;;;;;20.98;16.60;;;;;;;;;;5015813;28;20418;-91
2023/04/06 07:10:50;;;;;;;19.60;17.53;;;;;;;;;;5013759;28;20461;-90
2023/04/06 07:13:23;;;;;;;19.17;17.07;;;;;;;;;;5015015;28;20512;-91
2023/04/06 07:15:52;;;;;;;23.00;17.92;;;;;;;;;;5000321;28;20415;-91
2023/04/06 07:18:28;;;;;;;20.27;17.50;;;;;;;;;;4995784;28;20446;-90
2023/04/06 07:21:05;;;;;;;21.30;17.80;;;;;;;;;;5015522;28;20410;-91
2023/04/06 07:23:40;;;;;;;20.27;17.73;;;;;;;;;;5014366;28;20496;-91
2023/04/06 07:26:14;;;;;;;20.73;17.65;;;;;;;;;;5015149;28;20478;-91
2023/04/06 07:28:52;;;;;;;20.65;18.45;;;;;;;;;;5001458;28;20536;-91
2023/04/06 07:31:27;;;;;;;21.55;18.15;;;;;;;;;;4995538;28;20439;-91
2023/04/06 07:33:53;;;;;;;19.70;17.60;;;;;;;;;;4995484;28;20415;-91
2023/04/06 07:36:26;;;;;;;19.55;17.48;;;;;;;;;;5016720;28;20504;-91
2023/04/06 07:38:56;;;;;;;19.70;17.60;;;;;;;;;;5019135;28;20409;-91
2023/04/06 07:41:24;;;;;;;22.75;17.77;;;;;;;;;;5026235;28;20501;-91
2023/04/06 07:43:50;;;;;;;19.70;17.60;;;;;;;;;;5018869;28;20413;-91
2023/04/06 07:46:26;;;;;;;19.65;17.30;;;;;;;;;;5018752;28;20496;-92
2023/04/06 07:49:12;;;;;;;22.45;17.25;;;;;;;;;;5002071;28;20417;-91
2023/04/06 07:51:42;;;;;;;19.67;17.58;;;;;;;;;;5018689;28;20421;-92
2023/04/06 07:54:11;;;;;;;21.20;17.60;;;;;;;;;;5019128;28;20418;-91
2023/04/06 07:59:31;;;;;;;20.40;17.00;;;;;;;;;;5040796;28;20428;-92
2023/04/06 08:02:21;;;;;;;20.33;17.35;;;;;;;;;;5038983;28;20503;-93
2023/04/06 08:04:49;;;;;;;20.80;17.30;;;;;;;;;;5019463;28;20406;-92
2023/04/06 08:07:18;;;;;;;21.83;17.02;;;;;;;;;;5019433;28;20471;-92
2023/04/06 08:09:50;;;;;;;19.50;17.40;;;;;;;;;;5019579;28;20413;-93
2023/04/06 08:12:19;;;;;;;20.15;17.35;;;;;;;;;;5028995;28;20441;-92
2023/04/06 08:15:00;;;;;;;20.43;15.23;;;;;;;;;;5020392;28;20239;-92
2023/04/06 08:17:29;;;;;;;22.92;17.70;;;;;;;;;;5019770;28;20467;-93
2023/04/06 08:20:08;;;;;;;;;;;;;;;;;;;;;
2023/04/06 08:22:35;;;;;;;22.70;18.15;;;;;;;;;;5021425;28;20423;-93
2023/04/06 08:25:03;;;;;;;22.08;18.40;;;;;;;;;;5018722;28;20402;-93
2023/04/06 08:27:31;;;;;;;21.00;18.55;;;;;;;;;;5018799;28;20422;-91
2023/04/06 08:30:01;;;;;;;22.10;18.40;;;;;;;;;;5030478;28;20425;-93
2023/04/06 08:32:27;;;;;;;21.27;18.13;;;;;;;;;;5018335;28;20405;-93
2023/04/06 08:34:59;;;;;;;19.83;17.63;;;;;;;;;;5019299;28;20426;-92
2023/04/06 08:37:25;;;;;;;22.00;17.67;;;;;;;;;;5021999;28;20495;-91
2023/04/06 08:43:24;;;;;;;21.73;17.88;;;;;;;;;;5043928;28;20405;-93
2023/04/06 08:45:47;;;;;;;21.70;17.88;;;;;;;;;;5034195;28;20405;-94
2023/04/06 08:48:19;;;;;;;20.67;17.60;;;;;;;;;;5018117;28;20417;-92
2023/04/06 08:50:56;;;;;;;;;;;;;;;;;;;;;
2023/04/06 08:53:26;;;;;;;22.20;17.80;;;;;;;;;;5036057;28;20478;-93
2023/04/06 08:55:52;;;;;;;22.57;16.87;;;;;;;;;;5018801;28;20181;-93
2023/04/06 08:58:47;;;;;;;19.00;15.13;;;;;;;;;;5018942;28;20224;-92
2023/04/06 09:01:15;;;;;;;21.23;15.63;;;;;;;;;;5019030;28;20184;-91
2023/04/06 09:04:01;;;;;;;21.10;15.37;;;;;;;;;;5021088;28;20208;-91
2023/04/06 09:06:30;;;;;;;20.03;15.60;;;;;;;;;;5018613;28;20191;-92
2023/04/06 09:09:04;;;;;;;19.95;16.38;;;;;;;;;;5030726;28;20404;-91
2023/04/06 09:11:50;;;;;;;21.40;16.77;;;;;;;;;;5037627;28;20521;-91
2023/04/06 09:14:36;;;;;;;23.00;17.48;;;;;;;;;;5037255;28;20424;-93
2023/04/06 09:17:11;;;;;;;21.07;17.00;;;;;;;;;;5030389;28;20446;-93
2023/04/06 09:19:49;;;;;;;21.37;16.23;;;;;;;;;;5003435;28;20173;-91
2023/04/06 09:22:18;;;;;;;21.45;15.57;;;;;;;;;;5029137;28;20325;-91
2023/04/06 09:24:55;;;;;;;;;;;;;;;;;;;;;
2023/04/06 09:27:49;;;;;;;22.53;15.83;;;;;;;;;;5036269;28;20182;-90
2023/04/06 09:30:31;;;;;;;21.33;16.27;;;;;;;;;;5021044;28;20205;-90
2023/04/06 09:33:00;;;;;;;22.73;16.58;;;;;;;;;;5019765;28;20380;-90
2023/04/06 09:35:31;;;;;;;19.43;15.83;;;;;;;;;;5018304;28;20221;-91
2023/04/06 09:37:57;;;;;;;23.13;16.70;;;;;;;;;;5016481;28;20219;-91
2023/04/06 09:40:28;;;;;;;20.53;16.10;;;;;;;;;;5021038;28;20189;-91
2023/04/06 09:42:57;;;;;;;18.60;15.63;;;;;;;;;;5020998;28;20189;-90
2023/04/06 09:45:34;;;;;;;22.25;18.13;;;;;;;;;;5019375;28;20417;-90
2023/04/06 09:48:03;;;;;;;22.10;17.80;;;;;;;;;;5027072;28;20184;-91
2023/04/06 09:50:37;;;;;;;22.63;16.53;;;;;;;;;;5051211;28;20244;-91
2023/04/06 09:53:06;;;;;;;25.48;18.98;;;;;;;;;;5049675;28;20424;-90
2023/04/06 09:55:43;;;;;;;22.30;17.97;;;;;;;;;;5020938;28;20188;-92
2023/04/06 09:58:37;;;;;;;23.40;17.70;;;;;;;;;;5018913;28;20198;-90
2023/04/06 10:01:14;;;;;;;24.65;19.40;;;;;;;;;;5044669;28;20446;-89
2023/04/06 10:03:46;;;;;;;24.90;17.90;;;;;;;;;;5037794;28;20180;-92
2023/04/06 10:06:13;;;;;;;24.60;19.92;;;;;;;;;;5020432;28;20504;-90
2023/04/06 10:08:44;;;;;;;26.15;19.73;;;;;;;;;;5017390;28;20510;-91
2023/04/06 10:11:20;;;;;;;26.00;19.90;;;;;;;;;;5017245;28;20437;-90
2023/04/06 10:13:56;;;;;;;25.63;19.23;;;;;;;;;;5017591;28;20416;-91
2023/04/06 10:16:36;;;;;;;22.97;17.87;;;;;;;;;;5017501;28;20172;-91
2023/04/06 10:19:14;;;;;;;21.63;17.37;;;;;;;;;;5017792;28;20235;-92
2023/04/06 10:22:21;;;;;;;25.33;18.60;;;;;;;;;;5017100;28;20192;-92
2023/04/06 10:24:47;;;;;;;27.52;20.77;;;;;;;;;;5029439;28;20406;-91
2023/04/06 10:27:26;;;;;;;;;;;;;;;;;;;;;
2023/04/06 10:30:02;;;;;;;25.27;20.38;;;;;;;;;;5034832;28;20416;-89
2023/04/06 10:32:41;;;;;;;26.27;20.50;;;;;;;;;;5016572;28;20411;-89
2023/04/06 10:35:16;;;;;;;27.13;19.27;;;;;;;;;;5017171;28;20244;-91
2023/04/06 10:38:19;;;;;;;;;;;;;;;;;;;;;
2023/04/06 10:41:04;;;;;;;26.23;19.70;;;;;;;;;;5052811;28;20419;-91
2023/04/06 10:43:42;;;;;;;21.20;17.27;;;;;;;;;;5032377;28;20176;-91
2023/04/06 10:46:38;;;;;;;19.40;15.20;;;;;;;;;;5017153;28;20180;-91
2023/04/06 10:49:24;;;;;;;22.95;18.02;;;;;;;;;;5027607;28;20473;-91
2023/04/06 10:52:24;;;;;;;20.42;18.08;;;;;;;;;;5016800;28;20433;-90
2023/04/06 10:57:46;;;;;;;23.43;16.70;;;;;;;;;;5018016;28;20423;-91
2023/04/06 11:00:20;;;;;;;20.23;17.20;;;;;;;;;;5036076;28;20412;-90
2023/04/06 11:02:48;;;;;;;23.13;16.70;;;;;;;;;;5036274;28;20183;-89
2023/04/06 11:05:21;;;;;;;21.57;15.20;;;;;;;;;;5016086;28;20231;-90
2023/04/06 11:07:53;;;;;;;22.87;15.47;;;;;;;;;;5016625;28;20255;-89
2023/04/06 11:10:45;;;;;;;21.50;15.03;;;;;;;;;;5015728;28;20235;-89
2023/04/06 11:13:17;;;;;;;19.87;15.57;;;;;;;;;;5011946;28;20191;-89
2023/04/06 11:15:48;;;;;;;18.57;15.50;;;;;;;;;;5031681;28;20185;-89
2023/04/06 11:18:50;;;;;;;19.13;15.90;;;;;;;;;;5016504;28;20177;-91
2023/04/06 11:21:51;;;;;;;18.03;15.43;;;;;;;;;;5009884;28;20265;-92
2023/04/06 11:24:59;;;;;;;;;;;;;;;;;;;;;
2023/04/06 11:27:31;;;;;;;19.90;17.42;;;;;;;;;;5039597;28;20415;-90
2023/04/06 11:30:18;;;;;;;19.23;15.27;;;;;;;;;;5020040;28;20188;-91
2023/04/06 11:33:15;;;;;;;19.70;15.47;;;;;;;;;;5037202;28;20188;-90
2023/04/06 11:35:46;;;;;;;18.50;15.00;;;;;;;;;;5015456;28;20216;-89
2023/04/06 11:38:51;;;;;;;18.98;16.08;;;;;;;;;;5016267;28;20512;-91
2023/04/06 11:41:35;;;;;;;;;;;;;;;;;;;;;
2023/04/06 11:47:51;;;;;;;18.20;14.20;;;;;;;;;;4956537;28;20187;-90
2023/04/06 11:56:37;;;;;;;15.13;13.33;;;;;;;;;;5018835;28;20185;-91
2023/04/06 11:59:10;;;;;;;15.47;12.87;;;;;;;;;;5012577;28;20422;-90
2023/04/06 12:02:05;;;;;;;14.23;12.18;;;;;;;;;;5015083;28;20432;-90
2023/04/06 12:04:32;;;;;;;15.15;12.68;;;;;;;;;;5007018;28;20410;-90
2023/04/06 12:07:06;;;;;;;14.53;12.47;;;;;;;;;;5015365;28;20429;-89
2023/04/06 12:09:34;;;;;;;14.30;11.27;;;;;;;;;;5016232;28;20305;-89
2023/04/06 12:12:15;;;;;;;;;;;;;;;;;;;;;
2023/04/06 12:15:08;;;;;;;14.60;13.10;;;;;;;;;;5018882;28;20507;-88
2023/04/06 12:17:39;;;;;;;15.33;13.77;;;;;;;;;;5028056;28;20456;-89
2023/04/06 12:20:06;;;;;;;15.40;12.47;;;;;;;;;;5034982;28;20184;-89
2023/04/06 12:22:36;;;;;;;17.13;13.32;;;;;;;;;;5035935;28;20450;-89
2023/04/06 12:25:11;;;;;;;15.55;13.73;;;;;;;;;;5034370;28;20424;-89
2023/04/06 12:27:38;;;;;;;16.92;14.90;;;;;;;;;;5018677;28;20413;-89
2023/04/06 12:30:05;;;;;;;16.48;14.07;;;;;;;;;;5019079;28;20410;-89
2023/04/06 12:32:51;;;;;;;17.08;15.30;;;;;;;;;;5019888;28;20471;-89
2023/04/06 12:35:26;;;;;;;18.25;15.35;;;;;;;;;;5018270;28;20440;-90
2023/04/06 12:37:53;;;;;;;16.43;12.87;;;;;;;;;;5034632;28;20184;-89
2023/04/06 12:40:39;;;;;;;15.83;12.10;;;;;;;;;;5018919;28;20170;-89
2023/04/06 12:43:08;;;;;;;15.17;11.83;;;;;;;;;;5019428;28;20180;-89
2023/04/06 12:45:38;;;;;;;14.27;12.03;;;;;;;;;;5018556;28;20204;-89
2023/04/06 12:48:06;;;;;;;14.97;11.90;;;;;;;;;;5018968;28;20169;-90
2023/04/06 12:50:32;;;;;;;14.23;11.00;;;;;;;;;;5024843;28;20243;-88
2023/04/06 12:52:58;;;;;;;10.97;9.17;;;;;;;;;;5035199;28;20271;-88
2023/04/06 12:55:28;;;;;;;11.17;8.93;;;;;;;;;;5038023;28;20237;-89
2023/04/06 12:57:54;;;;;;;11.00;8.60;;;;;;;;;;5022191;28;20203;-88
2023/04/06 13:00:21;;;;;;;12.47;8.33;;;;;;;;;;5019224;28;20184;-89
2023/04/06 13:02:50;;;;;;;9.70;7.93;;;;;;;;;;5018170;28;20169;-89
2023/04/06 13:05:18;;;;;;;9.73;8.37;;;;;;;;;;5019117;28;20176;-88
2023/04/06 13:07:45;;;;;;;9.53;8.47;;;;;;;;;;5018751;28;20189;-89
2023/04/06 13:10:14;;;;;;;12.07;9.13;;;;;;;;;;5018180;28;20185;-88
2023/04/06 13:12:40;;;;;;;11.13;9.20;;;;;;;;;;5018250;28;20218;-88
2023/04/06 13:15:12;;;;;;;11.17;8.83;;;;;;;;;;5018333;28;20181;-88
2023/04/06 13:17:38;;;;;;;12.60;9.90;;;;;;;;;;5015626;28;20251;-88
2023/04/06 13:20:05;;;;;;;10.53;9.43;;;;;;;;;;5017710;28;20208;-90
2023/04/06 13:22:40;;;;;;;11.00;9.57;;;;;;;;;;5002073;28;20200;-88
2023/04/06 13:25:09;;;;;;;11.43;9.63;;;;;;;;;;5021632;28;20176;-87
2023/04/06 13:27:35;;;;;;;12.77;9.93;;;;;;;;;;5018266;28;20235;-88
2023/04/06 13:30:03;;;;;;;12.10;10.43;;;;;;;;;;5017799;28;20248;-88
2023/04/06 13:32:33;;;;;;;12.53;10.37;;;;;;;;;;5018258;28;20192;-88
2023/04/06 13:35:00;;;;;;;14.00;10.83;;;;;;;;;;5030424;28;20279;-87
2023/04/06 13:37:26;;;;;;;12.17;10.50;;;;;;;;;;5034131;28;20204;-87
2023/04/06 13:39:52;;;;;;;13.10;10.27;;;;;;;;;;5018002;28;20169;-87
2023/04/06 13:42:18;;;;;;;14.97;11.37;;;;;;;;;;5018356;28;20219;-88
2023/04/06 13:44:46;;;;;;;14.73;11.27;;;;;;;;;;5018511;28;20177;-88
2023/04/06 13:47:13;;;;;;;14.83;12.23;;;;;;;;;;5018188;28;20180;-87
2023/04/06 13:49:39;;;;;;;14.60;10.63;;;;;;;;;;5018714;28;20182;-88
2023/04/06 13:52:05;;;;;;;12.43;10.97;;;;;;;;;;5029392;28;20216;-87
2023/04/06 13:54:33;;;;;;;13.93;10.77;;;;;;;;;;5020164;28;20169;-88
2023/04/06 13:57:00;;;;;;;14.30;11.00;;;;;;;;;;5019691;28;20208;-89
2023/04/06 13:59:35;;;;;;;13.03;11.63;;;;;;;;;;5022697;28;20194;-90
2023/04/06 14:02:01;;;;;;;14.07;10.90;;;;;;;;;;5018999;28;20179;-89
2023/04/06 14:04:28;;;;;;;12.30;10.87;;;;;;;;;;5022277;28;20188;-89
2023/04/06 14:06:54;;;;;;;14.17;10.97;;;;;;;;;;5018361;28;20200;-90
2023/04/06 14:09:22;;;;;;;16.03;11.63;;;;;;;;;;5017707;28;20184;-91
2023/04/06 14:11:49;;;;;;;13.00;11.60;;;;;;;;;;5017737;28;20207;-90
2023/04/06 14:14:15;;;;;;;14.60;11.60;;;;;;;;;;5029874;28;20211;-89
2023/04/06 14:16:44;;;;;;;12.67;10.73;;;;;;;;;;5017192;28;20196;-89
2023/04/06 14:19:11;;;;;;;13.97;10.83;;;;;;;;;;5017689;28;20183;-88
2023/04/06 14:21:56;;;;;;;11.53;10.30;;;;;;;;;;5017351;28;20176;-87
2023/04/06 14:24:25;;;;;;;12.60;10.60;;;;;;;;;;5009126;28;20173;-88
2023/04/06 14:26:53;;;;;;;14.70;12.77;;;;;;;;;;4999679;28;20535;-88
2023/04/06 14:29:19;;;;;;;14.03;12.10;;;;;;;;;;5016950;28;20227;-87
2023/04/06 14:31:46;;;;;;;14.60;11.27;;;;;;;;;;5012997;28;20223;-87
2023/04/06 14:34:12;;;;;;;17.53;11.70;;;;;;;;;;5016509;28;20173;-87
2023/04/06 14:36:41;;;;;;;13.70;11.23;;;;;;;;;;5000414;28;20229;-87
2023/04/06 14:39:08;;;;;;;14.87;12.17;;;;;;;;;;5016980;28;20205;-87
2023/04/06 14:41:36;;;;;;;16.70;11.50;;;;;;;;;;5017493;28;20191;-87
2023/04/06 14:44:03;;;;;;;13.63;11.93;;;;;;;;;;5022936;28;20226;-87
2023/04/06 14:46:29;;;;;;;14.43;11.50;;;;;;;;;;5032900;28;20180;-87
2023/04/06 14:48:56;;;;;;;14.40;11.73;;;;;;;;;;5032464;28;20184;-88
2023/04/06 14:51:28;;;;;;;13.97;11.10;;;;;;;;;;5016599;28;20208;-89
2023/04/06 14:53:54;;;;;;;14.30;11.10;;;;;;;;;;5017039;28;20224;-87
2023/04/06 14:56:26;;;;;;;12.70;10.53;;;;;;;;;;5016222;28;20191;-87
2023/04/06 14:59:01;;;;;;;14.00;11.47;;;;;;;;;;5016850;28;20173;-88
2023/04/06 15:01:28;;;;;;;13.50;10.87;;;;;;;;;;5024366;28;20200;-87
2023/04/06 15:03:59;;;;;;;13.90;10.97;;;;;;;;;;5016743;28;20214;-88
2023/04/06 15:06:25;;;;;;;13.87;10.90;;;;;;;;;;5015494;28;20199;-88
2023/04/06 15:08:51;;;;;;;13.17;11.07;;;;;;;;;;5015987;28;20231;-87
2023/04/06 15:11:17;;;;;;;16.63;11.70;;;;;;;;;;5016349;28;20212;-87
2023/04/06 15:13:43;;;;;;;13.77;10.97;;;;;;;;;;5016594;28;20173;-91
2023/04/06 15:16:14;;;;;;;13.60;10.83;;;;;;;;;;5033105;28;20244;-92
2023/04/06 15:18:42;;;;;;;14.57;10.87;;;;;;;;;;5025918;28;20192;-93
2023/04/06 15:21:09;;;;;;;14.33;11.57;;;;;;;;;;5036166;28;20184;-92
2023/04/06 15:23:35;;;;;;;15.63;11.50;;;;;;;;;;5032413;28;20180;-92
2023/04/06 15:26:04;;;;;;;15.70;11.83;;;;;;;;;;5018756;28;20182;-89
2023/04/06 15:28:30;;;;;;;15.63;12.30;;;;;;;;;;5024892;28;20184;-89
2023/04/06 15:31:05;;;;;;;15.30;12.27;;;;;;;;;;5033096;28;20203;-91
2023/04/06 15:33:31;;;;;;;16.87;13.60;;;;;;;;;;5018996;28;20188;-92
2023/04/06 15:36:26;;;;;;;16.27;13.80;;;;;;;;;;5019699;28;20228;-94
2023/04/06 15:38:55;;;;;;;17.97;14.17;;;;;;;;;;5051646;28;20176;-93
2023/04/06 15:41:21;;;;;;;17.37;14.23;;;;;;;;;;5022983;28;20179;-91
2023/04/06 15:43:50;;;;;;;17.67;14.33;;;;;;;;;;5026724;28;20180;-91
2023/04/06 15:46:21;;;;;;;17.50;13.60;;;;;;;;;;5027598;28;20180;-92
2023/04/06 15:48:47;;;;;;;18.27;13.53;;;;;;;;;;5020244;28;20180;-93
2023/04/06 15:51:16;;;;;;;19.00;14.87;;;;;;;;;;5036529;28;20297;-90
2023/04/06 15:53:55;;;;;;;;;;;;;;;;;;;;;
2023/04/06 15:56:32;;;;;;;19.10;14.77;;;;;;;;;;5053439;28;20170;-86
2023/04/06 15:59:13;;;;;;;19.43;15.37;;;;;;;;;;5031111;28;20176;-91
2023/04/06 16:01:45;;;;;;;19.33;14.97;;;;;;;;;;5040026;28;20176;-92
2023/04/06 16:07:08;;;;;;;22.57;16.87;;;;;;;;;;5023582;28;20188;-91
2023/04/06 16:57:04;;;;;;;25.10;19.23;;;;;;;;;;4974942;23;20285;-77
2023/04/06 16:59:31;;;;;;;24.87;18.60;;;;;;;;;;5015908;28;20203;-77
2023/04/06 17:01:57;;;;;;;25.77;18.87;;;;;;;;;;5036432;28;20419;-78
2023/04/06 17:04:23;;;;;;;22.53;17.97;;;;;;;;;;5019952;28;20196;-79
2023/04/06 17:06:49;;;;;;;26.77;19.93;;;;;;;;;;5053461;28;20186;-80
2023/04/06 17:09:15;;;;;;;23.57;18.60;;;;;;;;;;5034838;28;20238;-79
2023/04/06 17:11:41;;;;;;;24.50;18.80;;;;;;;;;;5040706;28;20215;-78
2023/04/06 17:14:07;;;;;;;21.93;17.50;;;;;;;;;;5055209;28;20176;-78
2023/04/06 17:16:34;;;;;;;25.40;18.93;;;;;;;;;;5045807;28;20188;-78
2023/04/06 17:19:00;;;;;;;25.17;19.70;;;;;;;;;;5035241;28;20185;-77
2023/04/06 17:21:26;;;;;;;26.47;18.93;;;;;;;;;;5032635;28;20200;-77
2023/04/06 17:23:53;;;;;;;27.50;20.30;;;;;;;;;;5022003;28;20270;-77
2023/04/06 17:26:20;;;;;;;25.70;20.23;;;;;;;;;;5054354;28;20190;-77
2023/04/06 17:28:46;;;;;;;29.17;20.33;;;;;;;;;;5051756;28;20199;-77
2023/04/06 17:31:12;;;;;;;27.43;19.10;;;;;;;;;;5036200;28;20236;-77
2023/04/06 17:33:39;;;;;;;27.47;20.47;;;;;;;;;;5025366;28;20275;-77
2023/04/06 17:36:06;;;;;;;29.27;20.40;;;;;;;;;;5017925;28;20185;-77
2023/04/06 17:38:33;;;;;;;28.83;20.50;;;;;;;;;;5032950;28;20181;-77
2023/04/06 17:41:00;;;;;;;31.97;21.90;;;;;;;;;;5033703;28;20188;-77
2023/04/06 17:43:26;;;;;;;31.33;22.10;;;;;;;;;;5021458;28;20199;-77
2023/04/06 17:45:52;;;;;;;28.63;20.77;;;;;;;;;;5021245;28;20188;-77
2023/04/06 17:48:18;;;;;;;33.00;22.93;;;;;;;;;;5021910;28;20188;-77
2023/04/06 17:50:44;;;;;;;30.03;21.60;;;;;;;;;;5038198;28;20229;-77
2023/04/06 17:53:11;;;;;;;31.33;22.03;;;;;;;;;;5017693;28;20184;-78
2023/04/06 17:55:37;;;;;;;31.27;22.77;;;;;;;;;;5040766;28;20186;-78
2023/04/06 17:58:04;;;;;;;32.87;23.87;;;;;;;;;;5033412;28;20228;-77
2023/04/06 18:00:30;;;;;;;32.70;24.67;;;;;;;;;;5023686;28;20234;-80
2023/04/06 18:02:56;;;;;;;34.73;23.73;;;;;;;;;;5022488;28;20192;-78
2023/04/06 18:05:25;;;;;;;36.40;25.03;;;;;;;;;;5022457;28;20282;-78
2023/04/06 18:07:54;;;;;;;32.93;24.07;;;;;;;;;;5028030;28;20307;-78
2023/04/06 18:10:20;;;;;;;32.50;23.80;;;;;;;;;;5017132;28;20188;-78
2023/04/06 18:12:46;;;;;;;34.50;25.73;;;;;;;;;;5033945;28;20176;-78
2023/04/06 18:15:13;;;;;;;38.33;26.37;;;;;;;;;;5020844;28;20190;-78
2023/04/06 18:17:39;;;;;;;36.10;24.10;;;;;;;;;;5054452;28;20176;-78
2023/04/06 18:20:06;;;;;;;33.50;25.23;;;;;;;;;;5034961;28;20255;-79
2023/04/06 18:22:33;;;;;;;32.67;24.80;;;;;;;;;;5037358;28;20188;-80
2023/04/06 18:25:00;;;;;;;36.20;25.20;;;;;;;;;;5054344;28;20187;-80
2023/04/06 18:27:26;;;;;;;33.07;24.03;;;;;;;;;;5037416;28;20184;-78
2023/04/06 18:29:53;;;;;;;34.37;24.93;;;;;;;;;;5033431;28;20208;-77
2023/04/06 18:32:19;;;;;;;34.83;25.80;;;;;;;;;;5017405;28;20216;-77
2023/04/06 18:34:45;;;;;;;33.67;24.93;;;;;;;;;;5017307;28;20266;-79
2023/04/06 18:37:12;;;;;;;31.00;25.17;;;;;;;;;;5019758;28;20172;-78
2023/04/06 18:39:38;;;;;;;35.70;25.30;;;;;;;;;;5036355;28;20249;-78
2023/04/06 18:42:04;;;;;;;36.77;25.83;;;;;;;;;;5036518;28;20222;-77
2023/04/06 18:44:30;;;;;;;37.07;26.53;;;;;;;;;;5054593;28;20176;-77
2023/04/06 18:46:57;;;;;;;38.27;29.10;;;;;;;;;;5030402;28;20192;-79
2023/04/06 18:49:23;;;;;;;39.90;31.87;;;;;;;;;;5036377;28;20183;-77
2023/04/06 18:51:49;;;;;;;36.90;28.73;;;;;;;;;;5016670;28;20299;-77